sensor_id;sensor_type;location;lat;lon;timestamp;P1;durP1;ratioP1;P2;durP2;ratioP2
71759;SDS011;59919;48.112;16.280;2023-03-17T00:00:56;5.40;;;4.00;;
71759;SDS011;59919;48.112;16.280;2023-03-17T00:03:31;6.68;;;4.15;;
71759;SDS011;59919;48.112;16.280;2023-03-17T00:06:41;5.10;;;3.80;;
71759;SDS011;59919;48.112;16.280;2023-03-17T00:09:10;4.63;;;3.83;;
71759;SDS011;59919;48.112;16.280;2023-03-17T00:11:45;5.07;;;3.90;;
71759;SDS011;59919;48.112;16.280;2023-03-17T00:14:17;5.05;;;4.28;;
71759;SDS011;59919;48.112;16.280;2023-03-17T00:16:50;4.90;;;3.83;;
71759;SDS011;59919;48.112;16.280;2023-03-17T00:19:29;6.22;;;3.92;;
71759;SDS011;59919;48.112;16.280;2023-03-17T00:22:02;5.63;;;4.05;;
71759;SDS011;59919;48.112;16.280;2023-03-17T00:24:36;5.50;;;4.05;;
71759;SDS011;59919;48.112;16.280;2023-03-17T00:27:11;6.32;;;4.30;;
71759;SDS011;59919;48.112;16.280;2023-03-17T00:29:43;5.45;;;3.92;;
71759;SDS011;59919;48.112;16.280;2023-03-17T00:32:18;6.03;;;4.32;;
71759;SDS011;59919;48.112;16.280;2023-03-17T00:34:50;7.90;;;4.72;;
71759;SDS011;59919;48.112;16.280;2023-03-17T00:37:21;5.90;;;4.70;;
71759;SDS011;59919;48.112;16.280;2023-03-17T00:39:53;5.50;;;3.80;;
71759;SDS011;59919;48.112;16.280;2023-03-17T00:42:24;6.43;;;3.90;;
71759;SDS011;59919;48.112;16.280;2023-03-17T00:44:57;6.60;;;4.25;;
71759;SDS011;59919;48.112;16.280;2023-03-17T00:47:28;5.00;;;3.63;;
71759;SDS011;59919;48.112;16.280;2023-03-17T00:50:00;4.65;;;3.80;;
71759;SDS011;59919;48.112;16.280;2023-03-17T00:52:31;4.15;;;3.65;;
71759;SDS011;59919;48.112;16.280;2023-03-17T00:55:03;6.60;;;4.18;;
71759;SDS011;59919;48.112;16.280;2023-03-17T00:57:38;4.88;;;4.07;;
71759;SDS011;59919;48.112;16.280;2023-03-17T01:02:57;5.35;;;3.97;;
71759;SDS011;59919;48.112;16.280;2023-03-17T01:05:28;5.43;;;4.13;;
71759;SDS011;59919;48.112;16.280;2023-03-17T01:08:00;5.82;;;4.28;;
71759;SDS011;59919;48.112;16.280;2023-03-17T01:10:34;5.45;;;4.15;;
71759;SDS011;59919;48.112;16.280;2023-03-17T01:13:06;6.43;;;4.38;;
71759;SDS011;59919;48.112;16.280;2023-03-17T01:15:40;5.68;;;4.20;;
71759;SDS011;59919;48.112;16.280;2023-03-17T01:18:18;4.80;;;3.70;;
71759;SDS011;59919;48.112;16.280;2023-03-17T01:20:50;5.78;;;3.95;;
71759;SDS011;59919;48.112;16.280;2023-03-17T01:23:22;4.63;;;3.60;;
71759;SDS011;59919;48.112;16.280;2023-03-17T01:25:53;6.00;;;3.72;;
71759;SDS011;59919;48.112;16.280;2023-03-17T01:28:25;5.32;;;3.78;;
71759;SDS011;59919;48.112;16.280;2023-03-17T01:30:59;5.63;;;4.18;;
71759;SDS011;59919;48.112;16.280;2023-03-17T01:33:30;4.13;;;3.67;;
71759;SDS011;59919;48.112;16.280;2023-03-17T01:36:01;6.18;;;4.20;;
71759;SDS011;59919;48.112;16.280;2023-03-17T01:38:32;5.43;;;4.07;;
71759;SDS011;59919;48.112;16.280;2023-03-17T01:41:07;5.63;;;3.90;;
71759;SDS011;59919;48.112;16.280;2023-03-17T01:43:40;5.50;;;3.70;;
71759;SDS011;59919;48.112;16.280;2023-03-17T01:54:55;4.93;;;3.67;;
71759;SDS011;59919;48.112;16.280;2023-03-17T01:57:33;4.65;;;3.70;;
71759;SDS011;59919;48.112;16.280;2023-03-17T02:00:11;5.50;;;3.65;;
71759;SDS011;59919;48.112;16.280;2023-03-17T02:05:21;4.85;;;3.38;;
71759;SDS011;59919;48.112;16.280;2023-03-17T02:07:55;4.30;;;3.88;;
71759;SDS011;59919;48.112;16.280;2023-03-17T02:10:27;5.50;;;3.88;;
71759;SDS011;59919;48.112;16.280;2023-03-17T02:12:59;5.40;;;4.15;;
71759;SDS011;59919;48.112;16.280;2023-03-17T02:15:36;4.43;;;3.83;;
71759;SDS011;59919;48.112;16.280;2023-03-17T02:18:12;4.47;;;3.70;;
71759;SDS011;59919;48.112;16.280;2023-03-17T02:23:21;4.00;;;3.38;;
71759;SDS011;59919;48.112;16.280;2023-03-17T02:25:52;5.13;;;3.63;;
71759;SDS011;59919;48.112;16.280;2023-03-17T02:28:27;5.15;;;3.60;;
71759;SDS011;59919;48.112;16.280;2023-03-17T02:31:03;4.45;;;3.47;;
71759;SDS011;59919;48.112;16.280;2023-03-17T02:33:40;4.03;;;3.58;;
71759;SDS011;59919;48.112;16.280;2023-03-17T02:36:17;6.43;;;3.60;;
71759;SDS011;59919;48.112;16.280;2023-03-17T02:38:48;5.07;;;3.75;;
71759;SDS011;59919;48.112;16.280;2023-03-17T02:41:19;4.57;;;3.55;;
71759;SDS011;59919;48.112;16.280;2023-03-17T02:43:51;4.95;;;3.95;;
71759;SDS011;59919;48.112;16.280;2023-03-17T02:46:24;4.47;;;3.63;;
71759;SDS011;59919;48.112;16.280;2023-03-17T02:48:58;4.28;;;3.20;;
71759;SDS011;59919;48.112;16.280;2023-03-17T06:03:02;4.10;;;2.50;;
71759;SDS011;59919;48.112;16.280;2023-03-17T06:05:34;3.50;;;2.90;;
71759;SDS011;59919;48.112;16.280;2023-03-17T06:08:05;6.97;;;2.40;;
71759;SDS011;59919;48.112;16.280;2023-03-17T06:10:39;3.88;;;2.50;;
71759;SDS011;59919;48.112;16.280;2023-03-17T06:13:11;3.45;;;2.40;;
71759;SDS011;59919;48.112;16.280;2023-03-17T06:15:45;5.63;;;2.30;;
71759;SDS011;59919;48.112;16.280;2023-03-17T06:18:21;3.33;;;2.50;;
71759;SDS011;59919;48.112;16.280;2023-03-17T06:20:53;4.38;;;2.70;;
71759;SDS011;59919;48.112;16.280;2023-03-17T06:23:29;3.58;;;2.60;;
71759;SDS011;59919;48.112;16.280;2023-03-17T06:26:00;5.13;;;2.97;;
71759;SDS011;59919;48.112;16.280;2023-03-17T06:28:31;7.60;;;2.90;;
71759;SDS011;59919;48.112;16.280;2023-03-17T06:31:02;4.68;;;2.70;;
71759;SDS011;59919;48.112;16.280;2023-03-17T06:33:45;3.83;;;2.70;;
71759;SDS011;59919;48.112;16.280;2023-03-17T06:36:16;3.58;;;2.35;;
71759;SDS011;59919;48.112;16.280;2023-03-17T06:38:47;5.20;;;2.40;;
71759;SDS011;59919;48.112;16.280;2023-03-17T06:41:21;4.82;;;2.92;;
71759;SDS011;59919;48.112;16.280;2023-03-17T06:43:52;5.13;;;2.83;;
71759;SDS011;59919;48.112;16.280;2023-03-17T06:46:23;3.75;;;2.70;;
71759;SDS011;59919;48.112;16.280;2023-03-17T06:48:54;3.30;;;2.50;;
71759;SDS011;59919;48.112;16.280;2023-03-17T06:51:30;3.75;;;2.55;;
71759;SDS011;59919;48.112;16.280;2023-03-17T06:54:02;3.88;;;2.85;;
71759;SDS011;59919;48.112;16.280;2023-03-17T06:56:33;5.45;;;2.70;;
71759;SDS011;59919;48.112;16.280;2023-03-17T06:59:04;5.28;;;2.40;;
71759;SDS011;59919;48.112;16.280;2023-03-17T07:01:35;4.05;;;2.50;;
71759;SDS011;59919;48.112;16.280;2023-03-17T07:04:10;2.78;;;2.40;;
71759;SDS011;59919;48.112;16.280;2023-03-17T07:06:45;3.42;;;2.20;;
71759;SDS011;59919;48.112;16.280;2023-03-17T07:09:16;3.63;;;2.53;;
71759;SDS011;59919;48.112;16.280;2023-03-17T07:11:49;4.72;;;2.40;;
71759;SDS011;59919;48.112;16.280;2023-03-17T07:14:23;4.43;;;2.45;;
71759;SDS011;59919;48.112;16.280;2023-03-17T07:16:55;3.63;;;2.45;;
71759;SDS011;59919;48.112;16.280;2023-03-17T07:19:26;5.70;;;2.70;;
71759;SDS011;59919;48.112;16.280;2023-03-17T07:21:57;3.25;;;2.17;;
71759;SDS011;59919;48.112;16.280;2023-03-17T07:24:33;3.05;;;2.33;;
71759;SDS011;59919;48.112;16.280;2023-03-17T07:27:04;3.08;;;1.98;;
71759;SDS011;59919;48.112;16.280;2023-03-17T07:29:40;3.45;;;2.30;;
71759;SDS011;59919;48.112;16.280;2023-03-17T07:32:11;3.17;;;2.30;;
71759;SDS011;59919;48.112;16.280;2023-03-17T07:34:44;3.10;;;2.28;;
71759;SDS011;59919;48.112;16.280;2023-03-17T07:37:16;3.33;;;2.13;;
71759;SDS011;59919;48.112;16.280;2023-03-17T07:39:51;3.15;;;2.40;;
71759;SDS011;59919;48.112;16.280;2023-03-17T07:42:22;2.88;;;2.20;;
71759;SDS011;59919;48.112;16.280;2023-03-17T07:44:53;3.38;;;2.20;;
71759;SDS011;59919;48.112;16.280;2023-03-17T07:47:25;3.00;;;2.10;;
71759;SDS011;59919;48.112;16.280;2023-03-17T07:49:56;3.03;;;2.00;;
71759;SDS011;59919;48.112;16.280;2023-03-17T07:52:27;3.60;;;2.20;;
71759;SDS011;59919;48.112;16.280;2023-03-17T07:54:58;2.10;;;1.88;;
71759;SDS011;59919;48.112;16.280;2023-03-17T07:57:30;4.32;;;2.20;;
71759;SDS011;59919;48.112;16.280;2023-03-17T08:00:02;6.00;;;2.20;;
71759;SDS011;59919;48.112;16.280;2023-03-17T08:02:39;2.40;;;1.98;;
71759;SDS011;59919;48.112;16.280;2023-03-17T08:05:13;4.20;;;2.08;;
71759;SDS011;59919;48.112;16.280;2023-03-17T08:07:47;2.83;;;1.80;;
71759;SDS011;59919;48.112;16.280;2023-03-17T08:10:23;2.58;;;1.70;;
71759;SDS011;59919;48.112;16.280;2023-03-17T08:12:54;3.63;;;1.88;;
71759;SDS011;59919;48.112;16.280;2023-03-17T08:15:25;4.45;;;2.13;;
71759;SDS011;59919;48.112;16.280;2023-03-17T08:17:56;3.22;;;1.95;;
71759;SDS011;59919;48.112;16.280;2023-03-17T08:20:27;3.03;;;1.95;;
71759;SDS011;59919;48.112;16.280;2023-03-17T08:22:59;2.60;;;1.60;;
71759;SDS011;59919;48.112;16.280;2023-03-17T08:25:30;4.10;;;2.20;;
71759;SDS011;59919;48.112;16.280;2023-03-17T08:28:04;3.97;;;1.80;;
71759;SDS011;59919;48.112;16.280;2023-03-17T08:30:37;2.97;;;1.88;;
71759;SDS011;59919;48.112;16.280;2023-03-17T08:33:11;2.95;;;2.00;;
71759;SDS011;59919;48.112;16.280;2023-03-17T08:35:46;3.42;;;1.77;;
71759;SDS011;59919;48.112;16.280;2023-03-17T08:38:20;6.22;;;2.10;;
71759;SDS011;59919;48.112;16.280;2023-03-17T08:40:52;2.72;;;1.80;;
71759;SDS011;59919;48.112;16.280;2023-03-17T08:43:23;2.85;;;1.58;;
71759;SDS011;59919;48.112;16.280;2023-03-17T08:45:59;3.60;;;2.08;;
71759;SDS011;59919;48.112;16.280;2023-03-17T08:48:34;4.22;;;1.75;;
71759;SDS011;59919;48.112;16.280;2023-03-17T08:51:09;2.83;;;1.70;;
71759;SDS011;59919;48.112;16.280;2023-03-17T08:53:41;3.17;;;1.50;;
71759;SDS011;59919;48.112;16.280;2023-03-17T08:56:12;2.33;;;1.80;;
71759;SDS011;59919;48.112;16.280;2023-03-17T08:58:44;3.13;;;1.70;;
71759;SDS011;59919;48.112;16.280;2023-03-17T09:01:16;2.45;;;1.60;;
71759;SDS011;59919;48.112;16.280;2023-03-17T09:03:49;2.20;;;1.67;;
71759;SDS011;59919;48.112;16.280;2023-03-17T09:06:26;2.13;;;1.50;;
71759;SDS011;59919;48.112;16.280;2023-03-17T09:08:57;2.50;;;1.50;;
71759;SDS011;59919;48.112;16.280;2023-03-17T09:11:29;2.85;;;1.52;;
71759;SDS011;59919;48.112;16.280;2023-03-17T09:14:02;1.95;;;1.50;;
71759;SDS011;59919;48.112;16.280;2023-03-17T09:16:33;2.42;;;1.63;;
71759;SDS011;59919;48.112;16.280;2023-03-17T09:19:09;2.50;;;1.40;;
71759;SDS011;59919;48.112;16.280;2023-03-17T09:21:43;2.35;;;1.55;;
71759;SDS011;59919;48.112;16.280;2023-03-17T09:24:14;2.70;;;1.70;;
71759;SDS011;59919;48.112;16.280;2023-03-17T09:26:45;2.72;;;1.58;;
71759;SDS011;59919;48.112;16.280;2023-03-17T09:29:21;3.30;;;1.50;;
71759;SDS011;59919;48.112;16.280;2023-03-17T09:31:55;2.92;;;1.30;;
71759;SDS011;59919;48.112;16.280;2023-03-17T09:34:28;2.42;;;1.42;;
71759;SDS011;59919;48.112;16.280;2023-03-17T09:36:59;2.40;;;1.60;;
71759;SDS011;59919;48.112;16.280;2023-03-17T09:39:30;2.53;;;1.40;;
71759;SDS011;59919;48.112;16.280;2023-03-17T09:42:26;2.33;;;1.45;;
71759;SDS011;59919;48.112;16.280;2023-03-17T09:45:18;2.05;;;1.27;;
71759;SDS011;59919;48.112;16.280;2023-03-17T09:50:49;5.18;;;1.45;;
71759;SDS011;59919;48.112;16.280;2023-03-17T09:53:29;11.75;;;2.80;;
71759;SDS011;59919;48.112;16.280;2023-03-17T09:56:18;12.93;;;2.63;;
71759;SDS011;59919;48.112;16.280;2023-03-17T09:58:53;13.00;;;2.30;;
71759;SDS011;59919;48.112;16.280;2023-03-17T10:01:28;8.75;;;2.25;;
71759;SDS011;59919;48.112;16.280;2023-03-17T10:04:02;6.40;;;1.95;;
71759;SDS011;59919;48.112;16.280;2023-03-17T10:06:41;11.88;;;2.33;;
71759;SDS011;59919;48.112;16.280;2023-03-17T10:12:07;6.95;;;1.92;;
71759;SDS011;59919;48.112;16.280;2023-03-17T10:14:46;14.77;;;2.58;;
71759;SDS011;59919;48.112;16.280;2023-03-17T10:17:38;10.90;;;2.25;;
71759;SDS011;59919;48.112;16.280;2023-03-17T10:20:22;7.45;;;2.00;;
71759;SDS011;59919;48.112;16.280;2023-03-17T10:23:08;8.43;;;2.03;;
71759;SDS011;59919;48.112;16.280;2023-03-17T10:25:47;8.33;;;2.17;;
71759;SDS011;59919;48.112;16.280;2023-03-17T10:28:22;5.57;;;2.00;;
71759;SDS011;59919;48.112;16.280;2023-03-17T10:31:01;9.95;;;2.03;;
71759;SDS011;59919;48.112;16.280;2023-03-17T10:33:45;7.05;;;1.85;;
71759;SDS011;59919;48.112;16.280;2023-03-17T10:36:35;5.85;;;2.00;;
71759;SDS011;59919;48.112;16.280;2023-03-17T10:41:55;4.50;;;1.75;;
71759;SDS011;59919;48.112;16.280;2023-03-17T10:45:32;3.78;;;1.63;;
71759;SDS011;59919;48.112;16.280;2023-03-17T10:48:02;3.17;;;1.88;;
71759;SDS011;59919;48.112;16.280;2023-03-17T10:50:39;6.97;;;2.17;;
71759;SDS011;59919;48.112;16.280;2023-03-17T10:53:20;5.80;;;1.73;;
71759;SDS011;59919;48.112;16.280;2023-03-17T10:55:59;3.78;;;1.50;;
71759;SDS011;59919;48.112;16.280;2023-03-17T10:58:42;4.90;;;1.80;;
71759;SDS011;59919;48.112;16.280;2023-03-17T11:04:00;4.72;;;1.65;;
71759;SDS011;59919;48.112;16.280;2023-03-17T11:06:36;3.72;;;1.70;;
71759;SDS011;59919;48.112;16.280;2023-03-17T11:09:14;3.63;;;1.52;;
71759;SDS011;59919;48.112;16.280;2023-03-17T11:11:56;17.75;;;2.40;;
71759;SDS011;59919;48.112;16.280;2023-03-17T11:14:31;10.68;;;1.90;;
71759;SDS011;59919;48.112;16.280;2023-03-17T11:17:03;9.95;;;1.88;;
71759;SDS011;59919;48.112;16.280;2023-03-17T11:19:49;9.50;;;2.00;;
71759;SDS011;59919;48.112;16.280;2023-03-17T11:22:36;6.13;;;1.95;;
71759;SDS011;59919;48.112;16.280;2023-03-17T11:25:17;5.60;;;1.85;;
71759;SDS011;59919;48.112;16.280;2023-03-17T11:36:34;4.55;;;1.40;;
71759;SDS011;59919;48.112;16.280;2023-03-17T11:39:54;7.00;;;2.05;;
71759;SDS011;59919;48.112;16.280;2023-03-17T11:42:32;6.97;;;2.00;;
71759;SDS011;59919;48.112;16.280;2023-03-17T11:51:26;4.95;;;1.80;;
71759;SDS011;59919;48.112;16.280;2023-03-17T11:56:44;2.70;;;1.83;;
71759;SDS011;59919;48.112;16.280;2023-03-17T12:02:22;3.50;;;1.70;;
71759;SDS011;59919;48.112;16.280;2023-03-17T12:05:16;2.88;;;1.50;;
71759;SDS011;59919;48.112;16.280;2023-03-17T12:07:54;4.55;;;1.60;;
71759;SDS011;59919;48.112;16.280;2023-03-17T12:10:51;5.47;;;1.85;;
71759;SDS011;59919;48.112;16.280;2023-03-17T12:16:37;2.47;;;1.30;;
71759;SDS011;59919;48.112;16.280;2023-03-17T12:19:57;3.33;;;1.73;;
71759;SDS011;59919;48.112;16.280;2023-03-17T12:22:19;3.45;;;1.65;;
71759;SDS011;59919;48.112;16.280;2023-03-17T12:28:09;4.05;;;1.40;;
71759;SDS011;59919;48.112;16.280;2023-03-17T12:30:50;3.22;;;1.30;;
71759;SDS011;59919;48.112;16.280;2023-03-17T12:33:27;2.53;;;1.20;;
71759;SDS011;59919;48.112;16.280;2023-03-17T12:36:18;5.00;;;1.40;;
71759;SDS011;59919;48.112;16.280;2023-03-17T12:55:01;2.03;;;1.30;;
71759;SDS011;59919;48.112;16.280;2023-03-17T12:57:39;3.00;;;1.45;;
71759;SDS011;59919;48.112;16.280;2023-03-17T13:00:26;4.72;;;1.45;;
71759;SDS011;59919;48.112;16.280;2023-03-17T13:06:02;1.33;;;1.02;;
71759;SDS011;59919;48.112;16.280;2023-03-17T13:08:39;4.38;;;1.40;;
71759;SDS011;59919;48.112;16.280;2023-03-17T13:11:27;2.28;;;1.30;;
71759;SDS011;59919;48.112;16.280;2023-03-17T13:17:30;2.20;;;1.30;;
71759;SDS011;59919;48.112;16.280;2023-03-17T13:25:53;4.40;;;1.27;;
71759;SDS011;59919;48.112;16.280;2023-03-17T13:30:54;4.80;;;1.27;;
71759;SDS011;59919;48.112;16.280;2023-03-17T13:33:29;3.00;;;1.38;;
71759;SDS011;59919;48.112;16.280;2023-03-17T13:45:07;3.85;;;1.50;;
71759;SDS011;59919;48.112;16.280;2023-03-17T13:47:45;1.98;;;1.10;;
71759;SDS011;59919;48.112;16.280;2023-03-17T13:50:21;2.10;;;1.40;;
71759;SDS011;59919;48.112;16.280;2023-03-17T13:53:02;1.58;;;1.15;;
71759;SDS011;59919;48.112;16.280;2023-03-17T13:55:40;2.08;;;1.42;;
71759;SDS011;59919;48.112;16.280;2023-03-17T13:58:19;1.67;;;1.23;;
71759;SDS011;59919;48.112;16.280;2023-03-17T14:00:58;2.95;;;1.35;;
71759;SDS011;59919;48.112;16.280;2023-03-17T14:03:40;3.55;;;1.52;;
71759;SDS011;59919;48.112;16.280;2023-03-17T14:06:17;2.45;;;1.23;;
71759;SDS011;59919;48.112;16.280;2023-03-17T14:08:54;1.15;;;1.02;;
71759;SDS011;59919;48.112;16.280;2023-03-17T14:11:39;2.10;;;1.20;;
71759;SDS011;59919;48.112;16.280;2023-03-17T14:17:21;4.53;;;1.33;;
71759;SDS011;59919;48.112;16.280;2023-03-17T14:20:15;3.38;;;1.35;;
71759;SDS011;59919;48.112;16.280;2023-03-17T14:22:57;5.20;;;1.40;;
71759;SDS011;59919;48.112;16.280;2023-03-17T14:25:37;2.13;;;1.40;;
71759;SDS011;59919;48.112;16.280;2023-03-17T14:28:11;3.17;;;1.23;;
71759;SDS011;59919;48.112;16.280;2023-03-17T14:30:59;4.43;;;1.77;;
71759;SDS011;59919;48.112;16.280;2023-03-17T14:33:38;3.08;;;1.25;;
71759;SDS011;59919;48.112;16.280;2023-03-17T14:36:12;2.88;;;1.30;;
71759;SDS011;59919;48.112;16.280;2023-03-17T14:39:02;1.67;;;1.30;;
71759;SDS011;59919;48.112;16.280;2023-03-17T14:41:33;1.75;;;1.30;;
71759;SDS011;59919;48.112;16.280;2023-03-17T14:44:07;1.58;;;1.30;;
71759;SDS011;59919;48.112;16.280;2023-03-17T14:46:38;2.55;;;1.30;;
71759;SDS011;59919;48.112;16.280;2023-03-17T14:51:50;4.07;;;1.42;;
71759;SDS011;59919;48.112;16.280;2023-03-17T14:54:29;2.35;;;1.35;;
71759;SDS011;59919;48.112;16.280;2023-03-17T14:57:07;1.67;;;1.20;;
71759;SDS011;59919;48.112;16.280;2023-03-17T14:59:53;1.60;;;1.10;;
71759;SDS011;59919;48.112;16.280;2023-03-17T15:02:55;1.73;;;1.30;;
71759;SDS011;59919;48.112;16.280;2023-03-17T15:05:38;2.20;;;1.20;;
71759;SDS011;59919;48.112;16.280;2023-03-17T15:08:27;1.85;;;1.35;;
71759;SDS011;59919;48.112;16.280;2023-03-17T15:11:03;1.75;;;1.10;;
71759;SDS011;59919;48.112;16.280;2023-03-17T15:13:36;1.95;;;1.23;;
71759;SDS011;59919;48.112;16.280;2023-03-17T15:19:16;1.63;;;1.10;;
71759;SDS011;59919;48.112;16.280;2023-03-17T15:21:52;1.50;;;1.20;;
71759;SDS011;59919;48.112;16.280;2023-03-17T15:24:38;1.75;;;1.30;;
71759;SDS011;59919;48.112;16.280;2023-03-17T15:27:15;1.60;;;1.27;;
71759;SDS011;59919;48.112;16.280;2023-03-17T15:29:49;1.63;;;1.17;;
71759;SDS011;59919;48.112;16.280;2023-03-17T15:32:24;1.35;;;1.10;;
71759;SDS011;59919;48.112;16.280;2023-03-17T15:34:56;1.95;;;1.08;;
71759;SDS011;59919;48.112;16.280;2023-03-17T15:37:28;1.25;;;1.15;;
71759;SDS011;59919;48.112;16.280;2023-03-17T15:40:06;1.27;;;1.10;;
71759;SDS011;59919;48.112;16.280;2023-03-17T15:42:38;2.65;;;1.23;;
71759;SDS011;59919;48.112;16.280;2023-03-17T15:45:19;2.55;;;1.27;;
71759;SDS011;59919;48.112;16.280;2023-03-17T15:47:52;2.20;;;1.15;;
71759;SDS011;59919;48.112;16.280;2023-03-17T15:50:27;1.30;;;1.00;;
71759;SDS011;59919;48.112;16.280;2023-03-17T15:53:00;1.45;;;1.20;;
71759;SDS011;59919;48.112;16.280;2023-03-17T15:55:33;1.67;;;1.25;;
71759;SDS011;59919;48.112;16.280;2023-03-17T15:58:06;1.73;;;1.40;;
71759;SDS011;59919;48.112;16.280;2023-03-17T16:00:40;1.50;;;1.20;;
71759;SDS011;59919;48.112;16.280;2023-03-17T16:03:15;1.73;;;1.35;;
71759;SDS011;59919;48.112;16.280;2023-03-17T16:06:03;1.92;;;1.20;;
71759;SDS011;59919;48.112;16.280;2023-03-17T16:08:46;1.98;;;1.38;;
71759;SDS011;59919;48.112;16.280;2023-03-17T16:11:20;2.13;;;1.25;;
71759;SDS011;59919;48.112;16.280;2023-03-17T16:13:57;1.52;;;1.20;;
71759;SDS011;59919;48.112;16.280;2023-03-17T16:19:07;1.77;;;1.27;;
71759;SDS011;59919;48.112;16.280;2023-03-17T16:21:46;3.17;;;1.40;;
71759;SDS011;59919;48.112;16.280;2023-03-17T16:24:21;1.75;;;1.30;;
71759;SDS011;59919;48.112;16.280;2023-03-17T16:26:53;2.08;;;1.50;;
71759;SDS011;59919;48.112;16.280;2023-03-17T16:29:24;1.30;;;1.20;;
71759;SDS011;59919;48.112;16.280;2023-03-17T16:31:58;1.40;;;1.30;;
71759;SDS011;59919;48.112;16.280;2023-03-17T16:34:32;2.72;;;1.42;;
71759;SDS011;59919;48.112;16.280;2023-03-17T16:37:07;2.40;;;1.60;;
71759;SDS011;59919;48.112;16.280;2023-03-17T16:39:46;1.92;;;1.45;;
71759;SDS011;59919;48.112;16.280;2023-03-17T16:42:22;2.15;;;1.40;;
71759;SDS011;59919;48.112;16.280;2023-03-17T16:45:01;1.40;;;1.20;;
71759;SDS011;59919;48.112;16.280;2023-03-17T16:47:37;1.95;;;1.33;;
71759;SDS011;59919;48.112;16.280;2023-03-17T16:50:18;1.73;;;1.20;;
71759;SDS011;59919;48.112;16.280;2023-03-17T16:52:53;1.35;;;1.23;;
71759;SDS011;59919;48.112;16.280;2023-03-17T16:55:25;2.03;;;1.30;;
71759;SDS011;59919;48.112;16.280;2023-03-17T17:00:44;1.95;;;1.35;;
71759;SDS011;59919;48.112;16.280;2023-03-17T17:03:19;1.83;;;1.23;;
71759;SDS011;59919;48.112;16.280;2023-03-17T17:09:18;2.60;;;1.65;;
71759;SDS011;59919;48.112;16.280;2023-03-17T17:11:49;1.98;;;1.42;;
71759;SDS011;59919;48.112;16.280;2023-03-17T17:14:20;1.85;;;1.45;;
71759;SDS011;59919;48.112;16.280;2023-03-17T17:16:51;1.42;;;1.13;;
71759;SDS011;59919;48.112;16.280;2023-03-17T17:19:23;1.60;;;1.25;;
71759;SDS011;59919;48.112;16.280;2023-03-17T17:21:54;1.85;;;1.50;;
71759;SDS011;59919;48.112;16.280;2023-03-17T17:24:25;3.10;;;1.67;;
71759;SDS011;59919;48.112;16.280;2023-03-17T17:26:56;1.83;;;1.10;;
71759;SDS011;59919;48.112;16.280;2023-03-17T17:29:27;1.55;;;1.27;;
71759;SDS011;59919;48.112;16.280;2023-03-17T17:32:00;2.08;;;1.50;;
71759;SDS011;59919;48.112;16.280;2023-03-17T17:34:32;2.22;;;1.25;;
71759;SDS011;59919;48.112;16.280;2023-03-17T17:37:03;2.05;;;1.58;;
71759;SDS011;59919;48.112;16.280;2023-03-17T17:39:35;1.50;;;1.15;;
71759;SDS011;59919;48.112;16.280;2023-03-17T17:42:08;1.95;;;1.50;;
71759;SDS011;59919;48.112;16.280;2023-03-17T17:44:43;2.58;;;1.58;;
71759;SDS011;59919;48.112;16.280;2023-03-17T17:47:14;2.78;;;1.42;;
71759;SDS011;59919;48.112;16.280;2023-03-17T17:49:46;1.85;;;1.30;;
71759;SDS011;59919;48.112;16.280;2023-03-17T17:52:18;3.05;;;1.63;;
71759;SDS011;59919;48.112;16.280;2023-03-17T17:54:49;1.95;;;1.65;;
71759;SDS011;59919;48.112;16.280;2023-03-17T17:57:23;2.65;;;1.58;;
71759;SDS011;59919;48.112;16.280;2023-03-17T17:59:57;2.92;;;1.63;;
71759;SDS011;59919;48.112;16.280;2023-03-17T18:02:28;2.75;;;1.70;;
71759;SDS011;59919;48.112;16.280;2023-03-17T18:05:02;5.90;;;1.90;;
71759;SDS011;59919;48.112;16.280;2023-03-17T18:07:35;2.47;;;1.75;;
71759;SDS011;59919;48.112;16.280;2023-03-17T18:10:18;4.10;;;1.75;;
71759;SDS011;59919;48.112;16.280;2023-03-17T18:12:54;3.72;;;1.70;;
71759;SDS011;59919;48.112;16.280;2023-03-17T18:15:25;5.45;;;1.83;;
71759;SDS011;59919;48.112;16.280;2023-03-17T18:17:58;4.45;;;1.80;;
71759;SDS011;59919;48.112;16.280;2023-03-17T18:20:32;4.38;;;2.10;;
71759;SDS011;59919;48.112;16.280;2023-03-17T18:23:03;3.40;;;1.70;;
71759;SDS011;59919;48.112;16.280;2023-03-17T18:29:03;3.33;;;1.65;;
71759;SDS011;59919;48.112;16.280;2023-03-17T18:31:39;4.05;;;1.88;;
71759;SDS011;59919;48.112;16.280;2023-03-17T18:34:24;3.45;;;2.05;;
71759;SDS011;59919;48.112;16.280;2023-03-17T18:37:00;3.35;;;1.75;;
71759;SDS011;59919;48.112;16.280;2023-03-17T18:39:32;2.55;;;1.50;;
71759;SDS011;59919;48.112;16.280;2023-03-17T18:42:03;3.25;;;1.70;;
71759;SDS011;59919;48.112;16.280;2023-03-17T18:44:35;2.83;;;1.60;;
71759;SDS011;59919;48.112;16.280;2023-03-17T18:47:06;3.53;;;1.88;;
71759;SDS011;59919;48.112;16.280;2023-03-17T18:49:37;3.13;;;1.60;;
71759;SDS011;59919;48.112;16.280;2023-03-17T18:52:12;2.55;;;1.55;;
71759;SDS011;59919;48.112;16.280;2023-03-17T18:54:47;3.58;;;1.60;;
71759;SDS011;59919;48.112;16.280;2023-03-17T18:57:18;2.55;;;1.70;;
71759;SDS011;59919;48.112;16.280;2023-03-17T18:59:49;2.13;;;1.50;;
71759;SDS011;59919;48.112;16.280;2023-03-17T19:02:20;5.05;;;2.25;;
71759;SDS011;59919;48.112;16.280;2023-03-17T19:04:56;3.25;;;1.85;;
71759;SDS011;59919;48.112;16.280;2023-03-17T19:07:30;3.00;;;1.35;;
71759;SDS011;59919;48.112;16.280;2023-03-17T19:10:02;3.38;;;1.65;;
71759;SDS011;59919;48.112;16.280;2023-03-17T19:12:35;2.05;;;1.52;;
71759;SDS011;59919;48.112;16.280;2023-03-17T19:15:09;2.70;;;1.70;;
71759;SDS011;59919;48.112;16.280;2023-03-17T19:17:42;2.00;;;1.52;;
71759;SDS011;59919;48.112;16.280;2023-03-17T19:20:13;2.53;;;1.50;;
71759;SDS011;59919;48.112;16.280;2023-03-17T19:22:44;2.45;;;1.65;;
71759;SDS011;59919;48.112;16.280;2023-03-17T19:25:16;2.58;;;1.55;;
71759;SDS011;59919;48.112;16.280;2023-03-17T19:27:47;3.83;;;1.80;;
71759;SDS011;59919;48.112;16.280;2023-03-17T19:30:18;2.30;;;1.90;;
71759;SDS011;59919;48.112;16.280;2023-03-17T19:32:55;2.40;;;1.60;;
71759;SDS011;59919;48.112;16.280;2023-03-17T19:35:26;2.42;;;1.80;;
71759;SDS011;59919;48.112;16.280;2023-03-17T19:37:57;3.05;;;2.00;;
71759;SDS011;59919;48.112;16.280;2023-03-17T19:40:28;2.67;;;1.73;;
71759;SDS011;59919;48.112;16.280;2023-03-17T19:42:59;1.80;;;1.58;;
71759;SDS011;59919;48.112;16.280;2023-03-17T19:49:02;2.92;;;1.70;;
71759;SDS011;59919;48.112;16.280;2023-03-17T19:51:34;2.28;;;1.88;;
71759;SDS011;59919;48.112;16.280;2023-03-17T19:54:05;2.88;;;2.10;;
71759;SDS011;59919;48.112;16.280;2023-03-17T19:56:39;2.67;;;1.73;;
71759;SDS011;59919;48.112;16.280;2023-03-17T19:59:10;3.03;;;1.80;;
71759;SDS011;59919;48.112;16.280;2023-03-17T20:01:42;2.45;;;1.73;;
71759;SDS011;59919;48.112;16.280;2023-03-17T20:04:14;2.65;;;2.10;;
71759;SDS011;59919;48.112;16.280;2023-03-17T20:06:49;2.72;;;1.88;;
71759;SDS011;59919;48.112;16.280;2023-03-17T20:09:25;3.60;;;1.67;;
71759;SDS011;59919;48.112;16.280;2023-03-17T20:11:57;2.83;;;1.73;;
71759;SDS011;59919;48.112;16.280;2023-03-17T20:14:28;2.60;;;1.90;;
71759;SDS011;59919;48.112;16.280;2023-03-17T20:17:04;2.92;;;2.10;;
71759;SDS011;59919;48.112;16.280;2023-03-17T20:19:35;3.20;;;2.05;;
71759;SDS011;59919;48.112;16.280;2023-03-17T20:22:08;2.50;;;1.80;;
71759;SDS011;59919;48.112;16.280;2023-03-17T20:24:40;2.90;;;1.80;;
71759;SDS011;59919;48.112;16.280;2023-03-17T20:27:12;2.75;;;2.10;;
71759;SDS011;59919;48.112;16.280;2023-03-17T20:29:45;2.65;;;2.10;;
71759;SDS011;59919;48.112;16.280;2023-03-17T20:32:19;3.40;;;2.20;;